createdAt,value
2019-03-15T00:00:53.650Z,4.30
2019-03-15T00:03:23.715Z,4.43
2019-03-15T00:05:53.833Z,3.80
2019-03-15T00:08:23.909Z,4.70
2019-03-15T00:10:54.066Z,5.23
2019-03-15T00:13:24.029Z,4.87
2019-03-15T00:15:54.580Z,6.00
2019-03-15T00:18:24.610Z,6.20
2019-03-15T00:20:54.766Z,4.97
2019-03-15T00:23:25.013Z,5.80
2019-03-15T00:25:56.118Z,5.63
2019-03-15T00:28:26.521Z,4.90
2019-03-15T00:30:57.485Z,4.80
2019-03-15T00:33:28.244Z,4.73
2019-03-15T00:35:58.451Z,4.53
2019-03-15T00:38:28.996Z,4.57
2019-03-15T00:40:58.947Z,5.83
2019-03-15T00:43:29.294Z,5.07
2019-03-15T00:45:59.556Z,5.00
2019-03-15T00:48:29.653Z,5.30
2019-03-15T00:50:59.860Z,4.97
2019-03-15T00:53:30.089Z,4.60
2019-03-15T00:55:59.935Z,4.53
2019-03-15T00:58:29.956Z,4.70
2019-03-15T01:00:59.760Z,4.67
2019-03-15T01:03:29.913Z,5.70
2019-03-15T01:06:00.094Z,5.47
2019-03-15T01:08:30.392Z,4.70
2019-03-15T01:11:00.673Z,4.33
2019-03-15T01:13:31.326Z,3.90
2019-03-15T01:16:01.359Z,5.07
2019-03-15T01:18:31.275Z,4.37
2019-03-15T01:21:01.651Z,4.20
2019-03-15T01:23:32.013Z,5.30
2019-03-15T01:26:02.176Z,4.93
2019-03-15T01:28:32.178Z,4.57
2019-03-15T01:31:02.364Z,4.47
2019-03-15T01:33:32.250Z,4.50
2019-03-15T01:36:02.819Z,5.03
2019-03-15T01:38:33.102Z,4.53
2019-03-15T01:41:03.906Z,4.90
2019-03-15T01:43:35.552Z,5.07
2019-03-15T01:46:05.580Z,4.60
2019-03-15T01:48:35.905Z,4.97
2019-03-15T01:51:07.024Z,4.33
2019-03-15T01:53:36.882Z,4.70
2019-03-15T01:56:07.783Z,5.17
2019-03-15T01:58:38.185Z,4.40
2019-03-15T02:01:08.492Z,4.50
2019-03-15T02:03:39.564Z,4.70
2019-03-15T02:06:09.900Z,4.30
2019-03-15T02:08:41.316Z,4.77
2019-03-15T02:11:11.291Z,4.90
2019-03-15T02:13:41.464Z,4.70
2019-03-15T02:16:11.388Z,5.00
2019-03-15T02:18:41.386Z,4.57
2019-03-15T02:21:11.718Z,4.47
2019-03-15T02:23:41.602Z,4.50
2019-03-15T02:26:11.714Z,4.67
2019-03-15T02:28:42.215Z,3.90
2019-03-15T02:31:12.111Z,3.80
2019-03-15T02:33:42.504Z,4.30
2019-03-15T02:36:13.934Z,4.20
2019-03-15T02:38:44.317Z,4.60
2019-03-15T02:41:14.976Z,3.53
2019-03-15T02:43:46.522Z,4.17
2019-03-15T02:46:16.594Z,3.80
2019-03-15T02:48:46.985Z,3.53
2019-03-15T02:51:17.044Z,4.23
2019-03-15T02:53:47.102Z,3.70
2019-03-15T02:56:17.205Z,4.00
2019-03-15T02:58:47.191Z,4.33
2019-03-15T03:01:17.516Z,3.73
2019-03-15T03:03:47.878Z,4.27
2019-03-15T03:06:18.809Z,4.60
2019-03-15T03:08:48.920Z,4.20
2019-03-15T03:11:19.825Z,4.00
2019-03-15T03:13:50.106Z,3.90
2019-03-15T03:16:20.791Z,3.93
2019-03-15T03:18:50.735Z,4.17
2019-03-15T03:21:20.605Z,3.60
2019-03-15T03:23:51.048Z,3.47
2019-03-15T03:26:21.550Z,3.90
2019-03-15T03:28:51.725Z,4.33
2019-03-15T03:31:21.577Z,4.40
2019-03-15T03:33:52.111Z,4.93
2019-03-15T03:36:21.930Z,4.20
2019-03-15T03:38:52.059Z,4.23
2019-03-15T03:41:23.161Z,4.63
2019-03-15T03:43:53.305Z,3.80
2019-03-15T03:46:23.294Z,3.77
2019-03-15T03:48:53.801Z,3.90
2019-03-15T03:51:25.321Z,4.00
2019-03-15T03:53:55.435Z,4.03
2019-03-15T03:56:25.561Z,5.27
2019-03-15T03:58:55.656Z,4.20
2019-03-15T04:01:25.805Z,4.27
2019-03-15T04:03:56.081Z,4.17
2019-03-15T04:06:27.150Z,4.07
2019-03-15T04:08:57.284Z,4.40
2019-03-15T04:11:27.770Z,4.13
2019-03-15T04:13:57.707Z,3.67
2019-03-15T04:16:28.040Z,4.37
2019-03-15T04:18:58.346Z,4.03
2019-03-15T04:21:29.048Z,4.70
2019-03-15T04:23:59.321Z,4.00
2019-03-15T04:26:29.902Z,3.57
2019-03-15T04:28:59.766Z,3.67
2019-03-15T04:31:29.822Z,3.70
2019-03-15T04:33:59.944Z,4.13
2019-03-15T04:36:30.098Z,4.00
2019-03-15T04:39:00.500Z,4.10
2019-03-15T04:41:30.463Z,3.63
2019-03-15T04:44:00.705Z,3.17
2019-03-15T04:46:31.185Z,3.60
2019-03-15T04:49:01.119Z,3.70
2019-03-15T04:51:31.475Z,3.43
2019-03-15T04:54:01.390Z,3.83
2019-03-15T04:56:31.416Z,3.93
2019-03-15T04:59:01.984Z,3.97
2019-03-15T05:01:35.087Z,4.70
2019-03-15T05:04:05.970Z,3.43
2019-03-15T05:06:36.273Z,4.60
2019-03-15T05:09:07.215Z,4.53
2019-03-15T05:11:37.977Z,3.70
2019-03-15T05:14:09.145Z,3.77
2019-03-15T05:16:40.096Z,3.70
2019-03-15T05:19:10.277Z,3.33
2019-03-15T05:21:40.974Z,3.70
2019-03-15T05:24:11.251Z,3.73
2019-03-15T05:26:41.214Z,4.20
2019-03-15T05:29:11.097Z,3.60
2019-03-15T05:31:41.148Z,3.43
2019-03-15T05:34:11.576Z,3.93
2019-03-15T05:36:41.507Z,3.63
2019-03-15T05:39:11.466Z,3.80
2019-03-15T05:41:41.983Z,3.93
2019-03-15T05:44:11.905Z,4.20
2019-03-15T05:46:42.015Z,4.13
2019-03-15T05:49:11.977Z,4.20
2019-03-15T05:51:42.614Z,4.50
2019-03-15T05:54:13.367Z,4.63
2019-03-15T05:56:43.276Z,4.70
2019-03-15T05:59:13.220Z,3.93
2019-03-15T06:01:43.424Z,3.93
2019-03-15T06:04:13.322Z,4.40
2019-03-15T06:06:43.792Z,4.23
2019-03-15T06:09:14.263Z,4.07
2019-03-15T06:11:44.177Z,4.20
2019-03-15T06:14:14.149Z,4.47
2019-03-15T06:16:44.344Z,4.33
2019-03-15T06:19:14.300Z,4.07
2019-03-15T06:21:44.712Z,3.90
2019-03-15T06:24:14.689Z,4.27
2019-03-15T06:26:45.164Z,3.90
2019-03-15T06:29:15.669Z,5.70
2019-03-15T06:31:45.947Z,4.07
2019-03-15T06:34:16.021Z,3.97
2019-03-15T06:36:46.060Z,4.00
2019-03-15T06:39:16.168Z,5.63
2019-03-15T06:41:46.680Z,4.20
2019-03-15T06:44:17.084Z,4.23
2019-03-15T06:46:47.061Z,4.43
2019-03-15T06:49:17.727Z,3.63
2019-03-15T06:51:47.903Z,3.83
2019-03-15T06:54:18.008Z,3.60
2019-03-15T06:56:48.114Z,4.57
2019-03-15T06:59:18.153Z,4.63
2019-03-15T07:01:48.093Z,4.37
2019-03-15T07:04:18.213Z,4.30
2019-03-15T07:06:48.184Z,4.40
2019-03-15T07:09:18.245Z,4.50
2019-03-15T07:11:48.372Z,5.20
2019-03-15T07:14:18.628Z,4.60
2019-03-15T07:16:48.557Z,5.37
2019-03-15T07:19:26.057Z,4.60
2019-03-15T07:21:52.820Z,4.37
2019-03-15T07:24:25.427Z,4.30
2019-03-15T07:26:55.359Z,4.43
2019-03-15T07:29:25.477Z,4.80
2019-03-15T07:31:55.530Z,5.70
2019-03-15T07:34:26.030Z,6.20
2019-03-15T07:36:55.952Z,6.37
2019-03-15T07:39:26.699Z,5.60
2019-03-15T07:41:56.795Z,4.90
2019-03-15T07:44:26.917Z,4.90
2019-03-15T07:46:56.976Z,4.30
2019-03-15T07:49:27.302Z,4.50
2019-03-15T07:51:57.662Z,4.10
2019-03-15T07:54:37.445Z,4.50
2019-03-15T07:56:59.657Z,4.27
2019-03-15T07:59:29.935Z,4.23
2019-03-15T08:02:00.110Z,4.40
2019-03-15T08:04:30.771Z,4.50
2019-03-15T08:07:00.955Z,4.33
2019-03-15T08:09:31.318Z,4.30
2019-03-15T08:12:01.408Z,3.90
2019-03-15T08:14:31.509Z,4.37
2019-03-15T08:17:01.485Z,4.10
2019-03-15T08:19:32.037Z,4.30
2019-03-15T08:22:02.149Z,3.80
2019-03-15T08:24:32.060Z,3.57
2019-03-15T08:27:02.022Z,3.60
2019-03-15T08:29:31.981Z,4.23
2019-03-15T08:32:02.524Z,3.87
2019-03-15T08:34:32.960Z,3.43
2019-03-15T08:37:03.678Z,3.80
2019-03-15T08:39:33.829Z,4.17
2019-03-15T08:42:04.053Z,4.13
2019-03-15T08:44:34.277Z,4.03
2019-03-15T08:47:04.634Z,4.53
2019-03-15T08:49:35.022Z,3.80
2019-03-15T08:52:05.165Z,3.80
2019-03-15T08:54:35.262Z,3.23
2019-03-15T08:57:05.436Z,4.07
2019-03-15T08:59:36.014Z,3.77
2019-03-15T09:02:06.200Z,3.97
2019-03-15T09:04:36.260Z,3.43
2019-03-15T09:07:06.371Z,3.57
2019-03-15T09:09:36.501Z,3.47
2019-03-15T09:12:06.642Z,4.00
2019-03-15T09:14:36.776Z,2.90
2019-03-15T09:17:06.687Z,3.80
2019-03-15T09:19:37.132Z,3.80
2019-03-15T09:22:08.849Z,3.70
2019-03-15T09:24:39.128Z,3.33
2019-03-15T09:27:10.464Z,2.83
2019-03-15T09:29:41.275Z,3.00
2019-03-15T09:32:11.382Z,3.30
2019-03-15T09:34:41.509Z,3.60
2019-03-15T09:37:11.602Z,3.27
2019-03-15T09:39:42.597Z,4.03
2019-03-15T09:42:12.767Z,4.47
2019-03-15T09:44:43.015Z,3.77
2019-03-15T09:47:13.043Z,4.23
2019-03-15T09:49:43.206Z,4.80
2019-03-15T09:52:13.739Z,4.17
2019-03-15T09:54:43.840Z,3.50
2019-03-15T09:57:14.314Z,3.30
2019-03-15T09:59:44.605Z,3.10
2019-03-15T10:02:14.609Z,3.20
2019-03-15T10:04:44.992Z,3.20
2019-03-15T10:07:15.083Z,2.70
2019-03-15T10:09:46.358Z,3.30
2019-03-15T10:12:16.662Z,3.23
2019-03-15T10:14:47.534Z,2.50
2019-03-15T10:17:17.949Z,2.80
2019-03-15T10:19:48.158Z,2.53
2019-03-15T10:22:18.221Z,2.60
2019-03-15T10:24:48.752Z,3.00
2019-03-15T10:27:18.790Z,2.73
2019-03-15T10:29:48.833Z,2.77
2019-03-15T10:32:18.787Z,2.70
2019-03-15T10:34:48.828Z,2.40
2019-03-15T10:37:18.946Z,2.40
2019-03-15T10:39:49.309Z,2.20
2019-03-15T10:42:19.480Z,1.80
2019-03-15T10:44:49.704Z,1.90
2019-03-15T10:47:20.053Z,2.03
2019-03-15T10:49:50.350Z,2.30
2019-03-15T10:52:20.666Z,2.20
2019-03-15T10:54:51.810Z,1.90
2019-03-15T10:57:22.330Z,1.73
2019-03-15T10:59:52.386Z,2.07
2019-03-15T11:02:22.947Z,1.90
2019-03-15T11:04:53.287Z,1.60
2019-03-15T11:07:23.310Z,2.00
2019-03-15T11:09:54.240Z,1.90
2019-03-15T11:12:24.286Z,1.60
2019-03-15T11:14:54.412Z,1.73
2019-03-15T11:17:25.004Z,1.50
2019-03-15T11:19:55.281Z,1.40
2019-03-15T11:22:25.307Z,1.40
2019-03-15T11:24:55.365Z,1.30
2019-03-15T11:27:25.982Z,1.40
2019-03-15T11:29:55.965Z,1.50
2019-03-15T11:32:25.997Z,1.30
2019-03-15T11:34:55.885Z,1.17
2019-03-15T11:37:25.983Z,1.10
2019-03-15T11:39:56.032Z,1.23
2019-03-15T11:42:26.522Z,1.10
2019-03-15T11:44:56.579Z,1.10
2019-03-15T11:47:26.969Z,1.13
2019-03-15T11:49:57.011Z,1.00
2019-03-15T11:52:27.232Z,0.93
2019-03-15T11:54:57.277Z,1.00
2019-03-15T11:57:27.439Z,1.50
2019-03-15T11:59:58.427Z,1.03
2019-03-15T12:02:28.714Z,0.90
2019-03-15T12:04:59.355Z,0.90
2019-03-15T12:07:29.384Z,1.20
2019-03-15T12:09:59.461Z,0.90
2019-03-15T12:12:29.668Z,1.10
2019-03-15T12:14:59.508Z,1.00
2019-03-15T12:17:29.975Z,0.87
2019-03-15T12:19:59.827Z,1.00
2019-03-15T12:22:30.139Z,0.93
2019-03-15T12:25:00.127Z,1.00
2019-03-15T12:27:30.514Z,0.80
2019-03-15T12:30:03.707Z,1.10
2019-03-15T12:32:33.765Z,1.13
2019-03-15T12:35:03.857Z,1.10
2019-03-15T12:37:34.026Z,1.07
2019-03-15T12:40:06.084Z,1.10
2019-03-15T12:42:36.370Z,0.90
2019-03-15T12:45:08.595Z,1.30
2019-03-15T12:47:38.587Z,0.83
2019-03-15T12:50:09.726Z,1.00
2019-03-15T12:52:47.658Z,1.00
2019-03-15T12:55:12.566Z,0.80
2019-03-15T12:57:42.604Z,1.20
2019-03-15T13:00:13.645Z,1.17
2019-03-15T13:02:44.336Z,1.20
2019-03-15T13:05:14.372Z,1.30
2019-03-15T13:07:44.560Z,1.00
2019-03-15T13:10:14.545Z,0.90
2019-03-15T13:12:44.761Z,1.20
2019-03-15T13:15:14.881Z,0.90
2019-03-15T13:17:44.867Z,1.10
2019-03-15T13:20:15.458Z,0.80
2019-03-15T13:22:45.989Z,1.00
2019-03-15T13:25:16.402Z,1.00
2019-03-15T13:27:46.723Z,1.00
2019-03-15T13:30:16.851Z,1.00
2019-03-15T13:32:47.238Z,0.90
2019-03-15T13:35:17.335Z,1.10
2019-03-15T13:37:47.692Z,0.97
2019-03-15T13:40:19.232Z,1.10
2019-03-15T13:42:49.506Z,1.30
2019-03-15T13:45:19.705Z,1.17
2019-03-15T13:47:49.758Z,1.10
2019-03-15T13:50:20.878Z,1.20
2019-03-15T13:52:51.458Z,1.10
2019-03-15T13:55:22.080Z,1.00
2019-03-15T13:57:52.542Z,1.33
2019-03-15T14:00:31.993Z,1.33
2019-03-15T14:03:01.957Z,1.30
2019-03-15T14:05:31.912Z,1.30
2019-03-15T14:08:11.127Z,1.23
2019-03-15T14:10:33.891Z,1.43
2019-03-15T14:13:04.172Z,1.40
2019-03-15T14:15:34.282Z,1.20
2019-03-15T14:18:04.406Z,1.23
2019-03-15T14:20:34.447Z,1.23
2019-03-15T14:23:04.461Z,1.47
2019-03-15T14:25:36.078Z,1.27
2019-03-15T14:28:06.372Z,1.10
2019-03-15T14:30:36.894Z,1.30
2019-03-15T14:33:07.257Z,1.20
2019-03-15T14:35:37.587Z,1.13
2019-03-15T14:38:07.626Z,1.13
2019-03-15T14:40:38.016Z,1.07
2019-03-15T14:43:08.300Z,1.30
2019-03-15T14:45:38.455Z,1.30
2019-03-15T14:48:08.606Z,1.30
2019-03-15T14:50:39.130Z,1.20
2019-03-15T14:53:09.155Z,1.33
2019-03-15T14:55:40.844Z,1.33
2019-03-15T14:58:10.806Z,1.50
2019-03-15T15:00:40.894Z,1.40
2019-03-15T15:03:10.868Z,1.17
2019-03-15T15:05:40.931Z,1.40
2019-03-15T15:08:11.246Z,1.20
2019-03-15T15:10:41.428Z,2.27
2019-03-15T15:13:13.309Z,1.40
2019-03-15T15:15:43.642Z,1.40
2019-03-15T15:18:14.035Z,1.60
2019-03-15T15:20:44.524Z,1.23
2019-03-15T15:23:14.531Z,1.10
2019-03-15T15:25:44.719Z,1.40
2019-03-15T15:28:15.297Z,1.70
2019-03-15T15:30:45.647Z,1.33
2019-03-15T15:33:19.852Z,1.50
2019-03-15T15:35:51.850Z,1.50
2019-03-15T15:38:21.932Z,2.03
2019-03-15T15:40:52.308Z,2.10
2019-03-15T15:43:22.562Z,3.57
2019-03-15T15:45:52.969Z,2.47
2019-03-15T15:48:23.132Z,2.23
2019-03-15T15:50:53.172Z,2.33
2019-03-15T15:53:23.327Z,1.70
2019-03-15T15:55:53.392Z,1.63
2019-03-15T15:58:23.614Z,1.60
2019-03-15T16:00:53.717Z,2.20
2019-03-15T16:03:23.817Z,1.70
2019-03-15T16:05:54.243Z,1.63
2019-03-15T16:08:24.952Z,1.20
2019-03-15T16:10:55.339Z,1.60
2019-03-15T16:13:25.626Z,1.40
2019-03-15T16:15:56.580Z,1.60
2019-03-15T16:18:26.989Z,1.70
2019-03-15T16:20:57.459Z,1.80
2019-03-15T16:23:30.187Z,1.67
2019-03-15T16:25:59.357Z,1.70
2019-03-15T16:28:31.820Z,1.53
2019-03-15T16:31:01.547Z,1.57
2019-03-15T16:33:31.663Z,1.50
2019-03-15T16:36:01.978Z,1.93
2019-03-15T16:38:31.956Z,1.60
2019-03-15T16:41:02.040Z,1.40
2019-03-15T16:43:32.009Z,1.67
2019-03-15T16:46:02.222Z,1.43
2019-03-15T16:48:32.882Z,1.90
2019-03-15T16:51:04.067Z,1.83
2019-03-15T16:53:36.253Z,1.50
2019-03-15T16:56:06.572Z,2.10
2019-03-15T16:58:45.511Z,1.90
2019-03-15T17:01:08.221Z,2.00
2019-03-15T17:03:39.041Z,2.17
2019-03-15T17:06:09.633Z,3.10
2019-03-15T17:08:39.817Z,2.10
2019-03-15T17:11:09.825Z,2.37
2019-03-15T17:13:39.792Z,1.87
2019-03-15T17:16:09.863Z,2.10
2019-03-15T17:18:40.190Z,2.83
2019-03-15T17:21:10.175Z,1.90
2019-03-15T17:23:40.447Z,2.33
2019-03-15T17:26:10.516Z,2.10
2019-03-15T17:28:40.958Z,1.90
2019-03-15T17:31:11.827Z,2.70
2019-03-15T17:33:42.041Z,3.67
2019-03-15T17:36:12.766Z,4.10
2019-03-15T17:38:43.342Z,3.00
2019-03-15T17:41:16.195Z,3.20
2019-03-15T17:43:46.690Z,2.57
2019-03-15T17:46:16.935Z,2.50
2019-03-15T17:48:47.519Z,2.97
2019-03-15T17:51:20.722Z,2.90
2019-03-15T17:53:49.770Z,3.37
2019-03-15T17:56:20.035Z,3.20
2019-03-15T17:58:50.045Z,3.57
2019-03-15T18:01:20.593Z,3.47
2019-03-15T18:03:51.107Z,4.10
2019-03-15T18:06:21.330Z,3.73
2019-03-15T18:08:51.441Z,3.20
2019-03-15T18:11:21.568Z,2.50
2019-03-15T18:13:52.861Z,2.40
2019-03-15T18:16:22.827Z,2.30
2019-03-15T18:18:52.764Z,2.17
2019-03-15T18:21:22.877Z,3.37
2019-03-15T18:23:52.989Z,3.13
2019-03-15T18:26:23.081Z,2.10
2019-03-15T18:28:53.021Z,2.20
2019-03-15T18:31:23.058Z,1.90
2019-03-15T18:33:53.245Z,1.60
2019-03-15T18:36:23.375Z,1.80
2019-03-15T18:38:55.668Z,1.70
2019-03-15T18:41:25.998Z,2.80
2019-03-15T18:43:56.197Z,2.30
2019-03-15T18:46:26.059Z,1.80
2019-03-15T18:48:55.983Z,2.00
2019-03-15T18:51:26.121Z,2.00
2019-03-15T18:53:56.307Z,1.70
2019-03-15T18:56:26.434Z,1.70
2019-03-15T18:58:56.775Z,2.00
2019-03-15T19:01:27.039Z,2.30
2019-03-15T19:03:57.304Z,1.70
2019-03-15T19:06:27.422Z,2.20
2019-03-15T19:08:57.840Z,2.00
2019-03-15T19:11:27.751Z,1.90
2019-03-15T19:13:57.741Z,2.23
2019-03-15T19:16:27.760Z,2.80
2019-03-15T19:18:57.928Z,2.30
2019-03-15T19:21:28.223Z,2.20
2019-03-15T19:23:58.369Z,2.40
2019-03-15T19:26:29.194Z,2.10
2019-03-15T19:29:00.189Z,2.47
2019-03-15T19:31:30.326Z,2.33
2019-03-15T19:34:00.516Z,2.40
2019-03-15T19:36:30.753Z,2.37
2019-03-15T19:39:00.953Z,2.60
2019-03-15T19:41:31.040Z,2.37
2019-03-15T19:44:01.418Z,2.40
2019-03-15T19:46:31.698Z,2.20
2019-03-15T19:49:02.579Z,2.13
2019-03-15T19:51:33.213Z,2.00
2019-03-15T19:54:03.994Z,2.00
2019-03-15T19:56:34.237Z,1.80
2019-03-15T19:59:04.590Z,1.90
2019-03-15T20:01:35.407Z,2.07
2019-03-15T20:04:05.646Z,1.50
2019-03-15T20:06:35.707Z,1.37
2019-03-15T20:09:07.275Z,2.07
2019-03-15T20:11:37.397Z,1.40
2019-03-15T20:14:07.448Z,1.67
2019-03-15T20:16:37.651Z,1.20
2019-03-15T20:19:07.782Z,1.50
2019-03-15T20:21:37.986Z,1.27
2019-03-15T20:24:08.393Z,1.40
2019-03-15T20:26:38.385Z,1.50
2019-03-15T20:29:08.520Z,1.47
2019-03-15T20:31:38.742Z,1.20
2019-03-15T20:34:08.634Z,1.30
2019-03-15T20:36:38.578Z,1.30
2019-03-15T20:39:08.931Z,1.30
2019-03-15T20:41:39.217Z,1.30
2019-03-15T20:44:09.327Z,1.60
2019-03-15T20:46:40.074Z,1.60
2019-03-15T20:49:10.146Z,1.57
2019-03-15T20:51:40.580Z,1.40
2019-03-15T20:54:11.050Z,1.90
2019-03-15T20:56:41.345Z,1.50
2019-03-15T20:59:11.355Z,1.60
2019-03-15T21:01:41.269Z,1.50
2019-03-15T21:04:11.288Z,1.50
2019-03-15T21:06:41.216Z,1.60
2019-03-15T21:09:11.330Z,1.70
2019-03-15T21:11:41.319Z,1.83
2019-03-15T21:14:11.893Z,1.97
2019-03-15T21:16:41.912Z,1.60
2019-03-15T21:19:12.095Z,1.80
2019-03-15T21:21:42.887Z,1.90
2019-03-15T21:24:12.930Z,1.60
2019-03-15T21:26:43.461Z,1.80
2019-03-15T21:29:13.725Z,1.70
2019-03-15T21:31:43.743Z,1.80
2019-03-15T21:34:14.248Z,1.70
2019-03-15T21:36:44.379Z,1.90
2019-03-15T21:39:58.867Z,1.70
2019-03-15T21:42:29.266Z,1.63
2019-03-15T21:44:59.328Z,2.30
2019-03-15T21:47:29.313Z,2.03
2019-03-15T21:49:59.687Z,2.10
2019-03-15T21:52:31.944Z,2.37
2019-03-15T21:55:02.087Z,2.27
2019-03-15T21:57:32.132Z,2.50
2019-03-15T22:00:02.175Z,2.90
2019-03-15T22:02:32.816Z,2.90
2019-03-15T22:05:04.593Z,2.93
2019-03-15T22:07:34.834Z,3.20
2019-03-15T22:10:05.716Z,3.30
2019-03-15T22:12:35.895Z,3.23
2019-03-15T22:15:07.457Z,3.50
2019-03-15T22:17:37.994Z,2.63
2019-03-15T22:20:09.975Z,2.97
2019-03-15T22:22:40.493Z,2.90
2019-03-15T22:25:10.658Z,3.10
2019-03-15T22:27:41.044Z,2.80
2019-03-15T22:30:12.194Z,3.30
2019-03-15T22:32:42.295Z,2.83
2019-03-15T22:35:12.404Z,3.13
2019-03-15T22:37:43.070Z,2.77
2019-03-15T22:40:15.424Z,3.40
2019-03-15T22:42:46.031Z,2.77
2019-03-15T22:45:16.245Z,3.13
2019-03-15T22:47:46.449Z,2.73
2019-03-15T22:50:16.906Z,3.53
2019-03-15T22:52:47.020Z,3.70
2019-03-15T22:55:17.306Z,3.67
2019-03-15T22:57:59.361Z,3.17
2019-03-15T23:00:25.388Z,3.27
2019-03-15T23:02:55.484Z,3.57
2019-03-15T23:05:25.681Z,2.80
2019-03-15T23:07:55.959Z,3.53
2019-03-15T23:10:26.245Z,3.07
2019-03-15T23:12:56.841Z,3.20
2019-03-15T23:15:26.783Z,3.40
2019-03-15T23:17:57.937Z,3.00
2019-03-15T23:20:28.238Z,3.40
2019-03-15T23:22:58.308Z,3.87
2019-03-15T23:25:28.612Z,3.10
2019-03-15T23:27:58.805Z,3.27
2019-03-15T23:30:28.825Z,3.30
2019-03-15T23:32:59.154Z,3.40
2019-03-15T23:35:29.298Z,3.70
2019-03-15T23:37:59.758Z,3.60
2019-03-15T23:40:29.929Z,4.07
2019-03-15T23:42:59.946Z,3.60
2019-03-15T23:45:29.975Z,3.83
2019-03-15T23:47:59.957Z,4.00
2019-03-15T23:50:31.313Z,3.93
2019-03-15T23:53:01.414Z,3.90
2019-03-15T23:55:31.531Z,3.80
2019-03-15T23:58:01.443Z,4.40
